Time;durP1;ratioP1;P1;durP2;ratioP2;P2;SDS_P1;SDS_P2;PMS_P1;PMS_P2;Temp;Humidity;BMP_temperature;BMP_pressure;BME280_temperature;BME280_humidity;BME280_pressure;Samples;Min_cycle;Max_cycle;Signal;HPM_P1;HPM_P2
2022/12/16 00:01:09;;;;;;;1.27;1.27;;;;;;;;;;1809854;77;26263;-37
2022/12/16 00:03:37;;;;;;;1.37;1.30;;;;;;;;;;1814279;76;26201;-38
2022/12/16 00:06:05;;;;;;;1.40;1.30;;;;;;;;;;1816037;76;26161;-36
2022/12/16 00:08:33;;;;;;;1.30;1.30;;;;;;;;;;1808306;77;26224;-39
2022/12/16 00:11:01;;;;;;;1.50;1.50;;;;;;;;;;1810780;77;26279;-36
2022/12/16 00:13:29;;;;;;;1.55;1.52;;;;;;;;;;1814515;75;26185;-36
2022/12/16 00:15:57;;;;;;;1.30;1.30;;;;;;;;;;1808195;77;26232;-40
2022/12/16 00:18:24;;;;;;;1.40;1.40;;;;;;;;;;1834359;76;26223;-41
2022/12/16 00:20:53;;;;;;;1.50;1.50;;;;;;;;;;1821982;75;26285;-37
2022/12/16 00:23:20;;;;;;;1.47;1.37;;;;;;;;;;1833758;75;26208;-35
2022/12/16 00:25:48;;;;;;;1.40;1.40;;;;;;;;;;1833295;76;26222;-37
2022/12/16 00:28:16;;;;;;;1.30;1.20;;;;;;;;;;1830917;76;26227;-39
2022/12/16 00:30:44;;;;;;;1.35;1.35;;;;;;;;;;1834966;76;26206;-39
2022/12/16 00:33:11;;;;;;;1.35;1.35;;;;;;;;;;1820129;75;26227;-36
2022/12/16 00:35:39;;;;;;;1.30;1.30;;;;;;;;;;1827975;75;26294;-37
2022/12/16 00:38:06;;;;;;;1.30;1.30;;;;;;;;;;1829842;76;26296;-47
2022/12/16 00:40:33;;;;;;;1.27;1.27;;;;;;;;;;1828611;75;26240;-41
2022/12/16 00:43:00;;;;;;;1.50;1.40;;;;;;;;;;1820309;75;26211;-37
2022/12/16 00:45:28;;;;;;;1.35;1.35;;;;;;;;;;1833065;75;26239;-37
2022/12/16 00:47:55;;;;;;;1.40;1.40;;;;;;;;;;1833008;76;26203;-44
2022/12/16 00:50:22;;;;;;;1.30;1.30;;;;;;;;;;1824629;76;26191;-38
2022/12/16 00:52:50;;;;;;;1.40;1.40;;;;;;;;;;1823325;75;26617;-37
2022/12/16 00:55:17;;;;;;;1.30;1.30;;;;;;;;;;1826785;75;26184;-38
2022/12/16 00:57:45;;;;;;;1.20;1.20;;;;;;;;;;1829467;76;26207;-38
2022/12/16 01:00:13;;;;;;;1.20;1.20;;;;;;;;;;1840538;75;26194;-38
2022/12/16 01:02:41;;;;;;;1.65;1.55;;;;;;;;;;1829099;76;26215;-39
2022/12/16 01:05:10;;;;;;;1.30;1.30;;;;;;;;;;1838176;75;26306;-36
2022/12/16 01:07:38;;;;;;;1.40;1.40;;;;;;;;;;1822368;76;26207;-42
2022/12/16 01:10:06;;;;;;;1.30;1.30;;;;;;;;;;1834531;75;26187;-36
2022/12/16 01:12:34;;;;;;;1.30;1.30;;;;;;;;;;1826789;78;26232;-44
2022/12/16 01:15:01;;;;;;;1.22;1.22;;;;;;;;;;1826046;76;26205;-37
2022/12/16 01:17:29;;;;;;;1.00;1.00;;;;;;;;;;1815843;76;26755;-36
2022/12/16 01:19:56;;;;;;;1.30;1.30;;;;;;;;;;1815028;76;26782;-36
2022/12/16 01:22:23;;;;;;;1.30;1.30;;;;;;;;;;1815811;77;26629;-36
2022/12/16 01:24:50;;;;;;;1.40;1.40;;;;;;;;;;1807961;77;26216;-36
2022/12/16 01:27:18;;;;;;;1.17;1.17;;;;;;;;;;1814999;76;26311;-42
2022/12/16 01:29:45;;;;;;;1.27;1.27;;;;;;;;;;1817744;75;26243;-46
2022/12/16 01:32:12;;;;;;;1.10;1.10;;;;;;;;;;1807821;76;26692;-41
2022/12/16 01:34:40;;;;;;;1.20;1.20;;;;;;;;;;1813684;76;26295;-42
2022/12/16 01:37:09;;;;;;;1.27;1.27;;;;;;;;;;1820466;75;26339;-39
2022/12/16 01:39:36;;;;;;;1.10;1.10;;;;;;;;;;1822701;76;26220;-42
2022/12/16 01:42:03;;;;;;;1.20;1.20;;;;;;;;;;1814530;77;26282;-39
2022/12/16 01:44:32;;;;;;;1.17;1.17;;;;;;;;;;1811725;77;26054;-38
2022/12/16 01:47:02;;;;;;;1.40;1.40;;;;;;;;;;1812257;77;26649;-39
2022/12/16 01:49:31;;;;;;;1.20;1.20;;;;;;;;;;1827596;76;26169;-46
2022/12/16 01:52:00;;;;;;;1.20;1.20;;;;;;;;;;1814815;76;26301;-35
2022/12/16 01:54:31;;;;;;;1.20;1.20;;;;;;;;;;1813836;77;26275;-45
2022/12/16 01:57:00;;;;;;;1.00;1.00;;;;;;;;;;1822320;77;26285;-36
2022/12/16 01:59:28;;;;;;;1.52;1.10;;;;;;;;;;1808017;77;26274;-39
2022/12/16 02:01:56;;;;;;;1.10;1.10;;;;;;;;;;1817988;76;26613;-41
2022/12/16 02:04:23;;;;;;;1.10;1.10;;;;;;;;;;1814791;77;26209;-36
2022/12/16 02:06:51;;;;;;;1.12;1.12;;;;;;;;;;1812027;77;26215;-41
2022/12/16 02:09:18;;;;;;;1.10;1.10;;;;;;;;;;1814300;76;26317;-36
2022/12/16 02:11:47;;;;;;;1.20;1.20;;;;;;;;;;1813794;77;26264;-45
2022/12/16 02:14:16;;;;;;;1.10;1.10;;;;;;;;;;1818421;77;26641;-40
2022/12/16 02:16:53;;;;;;;1.20;1.20;;;;;;;;;;1819099;77;26696;-36
2022/12/16 02:19:22;;;;;;;1.20;1.20;;;;;;;;;;1813231;76;26223;-40
2022/12/16 02:21:51;;;;;;;1.20;1.20;;;;;;;;;;1811694;77;26730;-36
2022/12/16 02:24:32;;;;;;;1.10;1.10;;;;;;;;;;1822897;77;26635;-38
2022/12/16 02:27:01;;;;;;;1.20;1.20;;;;;;;;;;1812461;77;26208;-36
2022/12/16 02:29:29;;;;;;;1.10;1.10;;;;;;;;;;1817175;75;26263;-37
2022/12/16 02:31:58;;;;;;;1.07;1.07;;;;;;;;;;1814779;76;26343;-41
2022/12/16 02:34:43;;;;;;;1.07;1.07;;;;;;;;;;1812875;77;26184;-40
2022/12/16 02:37:15;;;;;;;1.00;1.00;;;;;;;;;;1821396;76;26260;-37
2022/12/16 02:39:44;;;;;;;0.90;0.90;;;;;;;;;;1810520;77;26014;-37
2022/12/16 02:42:25;;;;;;;1.10;1.10;;;;;;;;;;1819720;77;26616;-37
2022/12/16 02:44:56;;;;;;;1.00;1.00;;;;;;;;;;1812375;77;25950;-41
2022/12/16 02:47:24;;;;;;;0.90;0.90;;;;;;;;;;1817571;77;26220;-36
2022/12/16 02:49:52;;;;;;;1.10;1.10;;;;;;;;;;1808619;77;27046;-41
2022/12/16 02:52:21;;;;;;;1.00;1.00;;;;;;;;;;1814274;77;26256;-36
2022/12/16 02:54:49;;;;;;;0.90;0.90;;;;;;;;;;1813875;77;26283;-36
2022/12/16 02:57:21;;;;;;;1.00;1.00;;;;;;;;;;1811384;77;26274;-39
2022/12/16 02:59:49;;;;;;;1.10;1.10;;;;;;;;;;1819753;77;26298;-42
2022/12/16 03:02:27;;;;;;;0.90;0.90;;;;;;;;;;1822782;74;26192;-36
2022/12/16 03:04:56;;;;;;;0.90;0.90;;;;;;;;;;1814390;76;26294;-36
2022/12/16 03:07:25;;;;;;;0.90;0.90;;;;;;;;;;1808232;77;26301;-44
2022/12/16 03:09:53;;;;;;;0.80;0.80;;;;;;;;;;1821742;76;26287;-36
2022/12/16 03:12:22;;;;;;;1.25;0.90;;;;;;;;;;1808589;75;26204;-41
2022/12/16 03:14:50;;;;;;;0.80;0.80;;;;;;;;;;1825557;75;26260;-40
2022/12/16 03:17:19;;;;;;;0.80;0.80;;;;;;;;;;1830462;75;26214;-38
2022/12/16 03:19:47;;;;;;;0.90;0.90;;;;;;;;;;1853168;75;26626;-41
2022/12/16 03:22:16;;;;;;;0.90;0.90;;;;;;;;;;1843717;75;27049;-39
2022/12/16 03:24:43;;;;;;;0.78;0.78;;;;;;;;;;1850720;75;26644;-38
2022/12/16 03:27:30;;;;;;;1.00;1.00;;;;;;;;;;1849801;76;26291;-43
2022/12/16 03:30:05;;;;;;;1.20;0.95;;;;;;;;;;1847636;76;26099;-41
2022/12/16 03:32:36;;;;;;;1.00;1.00;;;;;;;;;;1847627;75;26237;-38
2022/12/16 03:35:08;;;;;;;0.98;0.98;;;;;;;;;;1840886;76;26743;-37
2022/12/16 03:37:36;;;;;;;0.80;0.80;;;;;;;;;;1845951;75;26279;-44
2022/12/16 03:40:05;;;;;;;0.90;0.90;;;;;;;;;;1846772;77;26679;-35
2022/12/16 03:42:33;;;;;;;0.93;0.93;;;;;;;;;;1851837;75;27051;-37
2022/12/16 03:45:00;;;;;;;1.00;1.00;;;;;;;;;;1848293;75;26201;-36
2022/12/16 03:47:28;;;;;;;0.90;0.90;;;;;;;;;;1845560;76;26228;-39
2022/12/16 03:49:55;;;;;;;0.90;0.90;;;;;;;;;;1842435;75;27146;-41
2022/12/16 03:52:23;;;;;;;0.82;0.82;;;;;;;;;;1846722;77;26779;-36
2022/12/16 03:54:50;;;;;;;0.80;0.80;;;;;;;;;;1847484;76;26192;-36
2022/12/16 03:57:17;;;;;;;0.90;0.90;;;;;;;;;;1850209;76;26278;-40
2022/12/16 03:59:44;;;;;;;1.00;1.00;;;;;;;;;;1851744;75;26166;-36
2022/12/16 04:02:12;;;;;;;0.80;0.80;;;;;;;;;;1849344;76;26189;-37
2022/12/16 04:04:39;;;;;;;0.70;0.70;;;;;;;;;;1848820;75;26194;-38
2022/12/16 04:07:23;;;;;;;0.80;0.80;;;;;;;;;;1851104;75;26290;-39
2022/12/16 04:09:51;;;;;;;0.60;0.60;;;;;;;;;;1847646;76;27146;-38
2022/12/16 04:26:07;;;;;;;0.85;0.85;;;;;;;;;;1816863;77;26788;-46
2022/12/16 04:28:34;;;;;;;0.70;0.70;;;;;;;;;;1822993;77;26208;-38
2022/12/16 04:31:01;;;;;;;0.75;0.75;;;;;;;;;;1821483;77;26207;-38
